createdAt,value
2019-04-05T00:03:25.072Z,12.70
2019-04-05T00:05:51.719Z,13.67
2019-04-05T00:08:18.441Z,13.43
2019-04-05T00:10:45.525Z,13.70
2019-04-05T00:13:12.612Z,14.00
2019-04-05T00:15:39.339Z,13.50
2019-04-05T00:18:06.368Z,13.20
2019-04-05T00:20:33.265Z,13.30
2019-04-05T00:22:59.898Z,13.43
2019-04-05T00:25:26.678Z,13.87
2019-04-05T00:27:53.363Z,14.17
2019-04-05T00:30:20.186Z,13.67
2019-04-05T00:32:46.965Z,13.90
2019-04-05T00:35:13.612Z,14.20
2019-04-05T00:37:40.358Z,13.90
2019-04-05T00:40:07.669Z,14.37
2019-04-05T00:42:34.651Z,14.50
2019-04-05T00:45:02.022Z,13.57
2019-04-05T00:47:28.867Z,14.43
2019-04-05T00:49:55.578Z,14.80
2019-04-05T00:52:22.425Z,14.77
2019-04-05T00:54:49.107Z,13.63
2019-04-05T00:57:16.380Z,14.20
2019-04-05T00:59:43.100Z,14.87
2019-04-05T01:02:10.171Z,14.37
2019-04-05T01:04:37.071Z,14.90
2019-04-05T01:07:03.789Z,14.20
2019-04-05T01:09:30.562Z,15.27
2019-04-05T01:11:57.342Z,14.57
2019-04-05T01:15:05.150Z,13.43
2019-04-05T01:17:31.991Z,14.57
2019-04-05T01:20:20.274Z,15.07
2019-04-05T01:22:47.005Z,14.43
2019-04-05T01:25:13.710Z,14.77
2019-04-05T01:28:21.640Z,14.67
2019-04-05T01:30:48.355Z,14.87
2019-04-05T01:33:15.293Z,14.93
2019-04-05T01:35:42.134Z,14.90
2019-04-05T01:38:49.894Z,14.20
2019-04-05T01:41:16.687Z,15.30
2019-04-05T01:43:43.407Z,14.70
2019-04-05T01:46:10.145Z,16.73
2019-04-05T01:48:37.330Z,15.23
2019-04-05T01:51:45.092Z,15.57
2019-04-05T01:54:11.981Z,15.17
2019-04-05T01:56:39.092Z,14.27
2019-04-05T01:59:18.784Z,15.30
2019-04-05T02:01:45.818Z,14.70
2019-04-05T02:04:12.639Z,14.63
2019-04-05T02:06:39.423Z,14.97
2019-04-05T02:09:47.999Z,15.80
2019-04-05T02:12:14.916Z,13.67
2019-04-05T02:14:41.603Z,14.50
2019-04-05T02:17:08.331Z,14.93
2019-04-05T02:19:35.108Z,14.87
2019-04-05T02:22:02.200Z,15.13
2019-04-05T02:24:28.922Z,15.73
2019-04-05T02:26:55.761Z,14.10
2019-04-05T02:29:22.478Z,14.53
2019-04-05T02:31:49.205Z,14.83
2019-04-05T02:34:15.984Z,15.30
2019-04-05T02:36:42.969Z,15.40
2019-04-05T02:39:09.689Z,14.63
2019-04-05T02:42:17.530Z,15.60
2019-04-05T02:45:25.281Z,15.50
2019-04-05T02:48:33.284Z,14.67
2019-04-05T02:51:41.053Z,15.80
2019-04-05T02:54:48.873Z,15.07
2019-04-05T02:57:15.663Z,15.20
2019-04-05T02:59:42.536Z,15.23
2019-04-05T03:02:09.766Z,15.77
2019-04-05T03:04:36.717Z,15.50
2019-04-05T03:07:44.569Z,15.43
2019-04-05T03:10:50.467Z,15.47
2019-04-05T03:13:17.270Z,15.47
2019-04-05T03:16:39.227Z,14.70
2019-04-05T03:19:36.291Z,15.67
2019-04-05T03:22:44.186Z,15.60
2019-04-05T03:25:10.946Z,15.50
2019-04-05T03:28:18.706Z,15.93
2019-04-05T03:31:26.823Z,14.50
2019-04-05T03:34:34.647Z,15.73
2019-04-05T03:37:01.496Z,16.33
2019-04-05T03:39:28.226Z,15.87
2019-04-05T03:44:41.733Z,16.67
2019-04-05T03:47:08.703Z,16.63
2019-04-05T03:49:35.961Z,16.87
2019-04-05T03:52:04.347Z,16.33
2019-04-05T03:54:31.062Z,15.93
2019-04-05T03:56:58.245Z,16.77
2019-04-05T03:59:25.255Z,16.27
2019-04-05T04:01:52.006Z,17.47
2019-04-05T04:04:56.200Z,17.43
2019-04-05T04:07:23.026Z,16.63
2019-04-05T04:09:50.222Z,16.90
2019-04-05T04:12:17.012Z,17.03
2019-04-05T04:14:44.047Z,17.10
2019-04-05T04:17:13.361Z,16.60
2019-04-05T04:19:40.315Z,16.93
2019-04-05T04:22:58.052Z,16.90
2019-04-05T04:25:24.887Z,16.43
2019-04-05T04:27:51.714Z,17.50
2019-04-05T04:30:18.704Z,16.70
2019-04-05T04:32:45.499Z,17.77
2019-04-05T04:35:12.236Z,17.07
2019-04-05T04:37:39.259Z,18.20
2019-04-05T04:40:06.300Z,17.20
2019-04-05T04:42:33.440Z,17.43
2019-04-05T04:45:11.275Z,18.60
2019-04-05T04:47:29.153Z,17.30
2019-04-05T04:50:37.192Z,18.23
2019-04-05T04:53:04.148Z,18.37
2019-04-05T04:55:31.244Z,18.13
2019-04-05T04:57:58.341Z,17.93
2019-04-05T05:00:25.330Z,19.00
2019-04-05T05:03:04.519Z,19.47
2019-04-05T05:05:31.781Z,20.10
2019-04-05T05:07:59.947Z,19.87
2019-04-05T05:11:14.315Z,20.70
2019-04-05T05:13:36.483Z,19.53
2019-04-05T05:16:44.410Z,19.80
2019-04-05T05:19:11.227Z,20.67
2019-04-05T05:22:19.081Z,20.33
2019-04-05T05:25:26.849Z,23.57
2019-04-05T05:27:53.717Z,26.43
2019-04-05T05:30:20.735Z,27.90
2019-04-05T05:32:47.614Z,30.07
2019-04-05T05:35:14.512Z,31.40
2019-04-05T05:37:41.241Z,40.73
2019-04-05T05:40:49.409Z,40.87
2019-04-05T05:43:16.141Z,44.30
2019-04-05T05:45:43.150Z,45.03
2019-04-05T05:48:09.980Z,44.27
2019-04-05T05:50:36.987Z,43.63
2019-04-05T05:53:03.713Z,46.07
2019-04-05T05:55:30.662Z,46.90
2019-04-05T05:57:58.730Z,46.57
2019-04-05T06:00:26.135Z,46.03
2019-04-05T06:02:52.909Z,42.77
2019-04-05T06:05:20.070Z,45.07
2019-04-05T06:07:47.068Z,44.40
2019-04-05T06:10:13.877Z,47.63
2019-04-05T06:12:40.617Z,45.87
2019-04-05T06:15:07.363Z,47.17
2019-04-05T06:17:34.297Z,46.53
2019-04-05T06:20:01.428Z,47.10
2019-04-05T06:22:28.557Z,46.90
2019-04-05T06:24:55.690Z,48.07
2019-04-05T06:27:22.418Z,46.93
2019-04-05T06:29:49.658Z,46.63
2019-04-05T06:32:16.713Z,47.00
2019-04-05T06:34:43.435Z,48.07
2019-04-05T06:37:30.012Z,46.60
2019-04-05T06:39:57.004Z,46.13
2019-04-05T06:42:23.978Z,48.43
2019-04-05T06:44:50.762Z,46.70
2019-04-05T06:47:17.876Z,47.93
2019-04-05T06:49:44.710Z,46.00
2019-04-05T06:52:11.856Z,47.67
2019-04-05T06:54:38.908Z,47.27
2019-04-05T06:57:06.231Z,47.20
2019-04-05T06:59:32.921Z,46.77
2019-04-05T07:01:59.644Z,43.70
2019-04-05T07:04:26.360Z,46.27
2019-04-05T07:06:53.475Z,46.47
2019-04-05T07:09:20.470Z,45.27
2019-04-05T07:11:47.459Z,43.13
2019-04-05T07:14:14.383Z,45.13
2019-04-05T07:16:41.524Z,45.43
2019-04-05T07:19:08.434Z,46.20
2019-04-05T07:21:35.405Z,45.63
2019-04-05T07:24:02.024Z,41.37
2019-04-05T07:26:28.639Z,42.67
2019-04-05T07:28:55.597Z,44.80
2019-04-05T07:31:22.218Z,42.33
2019-04-05T07:33:48.850Z,41.00
2019-04-05T07:36:15.525Z,43.80
2019-04-05T07:38:42.169Z,41.70
2019-04-05T07:41:09.163Z,41.30
2019-04-05T07:43:36.298Z,41.80
2019-04-05T07:46:03.153Z,42.23
2019-04-05T07:48:29.995Z,42.13
2019-04-05T07:50:56.669Z,42.90
2019-04-05T07:53:23.648Z,43.40
2019-04-05T07:55:50.369Z,43.40
2019-04-05T07:58:17.402Z,43.33
2019-04-05T08:01:26.370Z,44.60
2019-04-05T08:03:53.114Z,43.23
2019-04-05T08:06:19.834Z,44.43
2019-04-05T08:09:29.660Z,46.00
2019-04-05T08:11:56.516Z,45.67
2019-04-05T08:14:23.886Z,45.03
2019-04-05T08:16:50.764Z,45.43
2019-04-05T08:19:17.471Z,44.60
2019-04-05T08:21:44.241Z,45.30
2019-04-05T08:24:11.388Z,46.20
2019-04-05T08:27:19.249Z,43.53
2019-04-05T08:29:46.087Z,44.47
2019-04-05T08:32:14.731Z,47.23
2019-04-05T08:34:41.862Z,51.73
2019-04-05T08:37:08.698Z,50.90
2019-04-05T08:39:35.413Z,50.70
2019-04-05T08:42:03.671Z,51.60
2019-04-05T08:44:30.430Z,51.23
2019-04-05T08:46:57.418Z,50.43
2019-04-05T08:49:24.042Z,50.37
2019-04-05T08:51:50.719Z,53.07
2019-04-05T08:54:17.322Z,51.50
2019-04-05T08:56:44.098Z,51.20
2019-04-05T08:59:11.017Z,51.20
2019-04-05T09:01:38.048Z,50.17
2019-04-05T09:04:05.126Z,49.63
2019-04-05T09:06:32.169Z,48.90
2019-04-05T09:09:11.631Z,49.23
2019-04-05T09:11:38.759Z,48.67
2019-04-05T09:14:05.389Z,49.93
2019-04-05T09:16:33.576Z,48.57
2019-04-05T09:19:00.563Z,49.57
2019-04-05T09:21:27.187Z,49.97
2019-04-05T09:24:13.478Z,51.30
2019-04-05T09:26:40.363Z,54.70
2019-04-05T09:29:09.247Z,54.30
2019-04-05T09:31:35.619Z,56.13
2019-04-05T09:34:02.781Z,53.73
2019-04-05T09:36:29.974Z,57.50
2019-04-05T09:38:56.874Z,56.13
2019-04-05T09:41:24.251Z,55.20
2019-04-05T09:43:51.350Z,56.50
2019-04-05T09:46:18.554Z,56.13
2019-04-05T09:48:45.413Z,54.10
2019-04-05T09:51:12.466Z,54.20
2019-04-05T09:53:40.030Z,52.73
2019-04-05T09:56:06.843Z,51.53
2019-04-05T09:58:33.456Z,50.93
2019-04-05T10:01:00.500Z,54.33
2019-04-05T10:03:27.541Z,53.60
2019-04-05T10:05:54.271Z,50.40
2019-04-05T10:08:20.969Z,52.80
2019-04-05T10:10:48.029Z,49.87
2019-04-05T10:13:15.014Z,48.30
2019-04-05T10:15:41.804Z,48.20
2019-04-05T10:18:08.961Z,46.53
2019-04-05T10:20:38.813Z,46.20
2019-04-05T10:23:04.430Z,45.73
2019-04-05T10:25:31.862Z,45.57
2019-04-05T10:27:58.995Z,46.77
2019-04-05T10:30:25.917Z,44.07
2019-04-05T10:32:52.913Z,43.97
2019-04-05T10:35:19.768Z,43.90
2019-04-05T10:37:46.878Z,42.33
2019-04-05T10:40:13.925Z,42.53
2019-04-05T10:42:40.742Z,42.00
2019-04-05T10:45:08.656Z,41.10
2019-04-05T10:47:35.699Z,42.33
2019-04-05T10:50:03.846Z,41.23
2019-04-05T10:52:30.748Z,42.77
2019-04-05T10:54:58.155Z,42.40
2019-04-05T10:57:25.779Z,41.17
2019-04-05T10:59:52.856Z,41.50
2019-04-05T11:02:21.071Z,40.90
2019-04-05T11:04:48.209Z,40.27
2019-04-05T11:07:15.000Z,40.07
2019-04-05T11:09:41.851Z,39.73
2019-04-05T11:12:08.903Z,46.27
2019-04-05T11:14:35.851Z,39.00
2019-04-05T11:17:05.024Z,40.33
2019-04-05T11:19:32.332Z,41.27
2019-04-05T11:21:59.974Z,37.47
2019-04-05T11:24:27.194Z,38.10
2019-04-05T11:26:54.387Z,61.37
2019-04-05T11:29:21.104Z,51.80
2019-04-05T11:31:57.125Z,41.93
2019-04-05T11:34:17.054Z,38.93
2019-04-05T11:37:25.242Z,37.13
2019-04-05T11:39:52.013Z,36.73
2019-04-05T11:43:00.107Z,37.70
2019-04-05T11:45:27.117Z,35.37
2019-04-05T11:48:35.158Z,37.00
2019-04-05T11:51:02.176Z,37.73
2019-04-05T11:53:32.185Z,37.20
2019-04-05T11:55:59.076Z,36.83
2019-04-05T11:58:25.882Z,36.17
2019-04-05T12:03:43.191Z,35.53
2019-04-05T12:06:09.918Z,35.33
2019-04-05T12:08:36.636Z,35.40
2019-04-05T12:13:37.809Z,35.80
2019-04-05T12:16:06.151Z,36.60
2019-04-05T12:18:34.804Z,35.17
2019-04-05T12:21:05.759Z,36.97
2019-04-05T12:23:51.649Z,35.20
2019-04-05T12:26:18.419Z,36.37
2019-04-05T12:28:45.707Z,37.47
2019-04-05T12:31:12.491Z,36.07
2019-04-05T12:33:39.684Z,36.47
2019-04-05T12:36:06.515Z,36.10
2019-04-05T12:38:33.579Z,36.27
2019-04-05T12:41:44.905Z,36.73
2019-04-05T12:44:14.333Z,36.30
2019-04-05T12:46:39.355Z,37.13
2019-04-05T12:49:06.127Z,36.37
2019-04-05T12:51:33.256Z,37.47
2019-04-05T12:54:00.471Z,37.83
2019-04-05T12:56:28.262Z,37.17
2019-04-05T12:58:55.978Z,37.80
2019-04-05T13:01:23.886Z,36.43
2019-04-05T13:03:51.452Z,37.03
2019-04-05T13:06:21.739Z,35.97
2019-04-05T13:08:49.283Z,37.47
2019-04-05T13:11:16.421Z,37.53
2019-04-05T13:13:43.131Z,36.93
2019-04-05T13:16:22.466Z,37.80
2019-04-05T13:18:49.459Z,37.57
2019-04-05T13:21:16.448Z,37.23
2019-04-05T13:23:43.914Z,36.17
2019-04-05T13:26:12.234Z,37.23
2019-04-05T13:28:39.160Z,37.03
2019-04-05T13:31:05.943Z,36.97
2019-04-05T13:33:33.418Z,36.20
2019-04-05T13:36:00.433Z,36.47
2019-04-05T13:38:27.237Z,37.87
2019-04-05T13:40:56.736Z,38.23
2019-04-05T13:43:23.159Z,35.37
2019-04-05T13:45:50.231Z,35.30
2019-04-05T13:48:17.143Z,36.97
2019-04-05T13:50:43.980Z,36.17
2019-04-05T13:53:11.844Z,37.10
2019-04-05T13:55:40.758Z,36.67
2019-04-05T13:58:11.159Z,36.50
2019-04-05T14:00:38.654Z,36.47
2019-04-05T14:03:06.257Z,37.53
2019-04-05T14:05:33.647Z,35.67
2019-04-05T14:08:09.913Z,37.00
2019-04-05T14:10:31.918Z,37.47
2019-04-05T14:13:18.226Z,36.73
2019-04-05T14:15:45.552Z,38.37
2019-04-05T14:18:15.340Z,37.13
2019-04-05T14:20:42.413Z,37.70
2019-04-05T14:23:09.585Z,36.63
2019-04-05T14:25:36.570Z,37.03
2019-04-05T14:28:04.574Z,37.63
2019-04-05T14:30:33.074Z,36.93
2019-04-05T14:33:00.830Z,37.33
2019-04-05T14:35:27.775Z,36.80
2019-04-05T14:38:01.853Z,37.07
2019-04-05T14:40:31.580Z,36.57
2019-04-05T14:42:57.937Z,37.00
2019-04-05T14:45:24.707Z,36.73
2019-04-05T14:47:51.472Z,37.03
2019-04-05T14:50:18.335Z,36.80
2019-04-05T14:52:45.416Z,36.60
2019-04-05T14:55:12.243Z,36.40
2019-04-05T14:57:58.935Z,37.47
2019-04-05T15:00:25.794Z,35.87
2019-04-05T15:02:52.901Z,37.37
2019-04-05T15:05:19.691Z,36.87
2019-04-05T15:07:50.651Z,37.57
2019-04-05T15:10:16.136Z,36.27
2019-04-05T15:12:43.804Z,36.50
2019-04-05T15:18:19.880Z,35.77
2019-04-05T15:20:59.883Z,36.37
2019-04-05T15:23:27.727Z,35.27
2019-04-05T15:25:55.739Z,35.30
2019-04-05T15:28:25.242Z,37.13
2019-04-05T15:30:56.667Z,36.30
2019-04-05T15:33:25.584Z,35.20
2019-04-05T15:35:53.298Z,37.53
2019-04-05T15:38:20.075Z,34.17
2019-04-05T15:40:47.071Z,34.93
2019-04-05T15:43:13.730Z,36.13
2019-04-05T15:45:42.704Z,35.93
2019-04-05T15:48:09.499Z,34.27
2019-04-05T15:50:36.210Z,35.70
2019-04-05T15:53:03.792Z,36.53
2019-04-05T15:55:33.328Z,36.50
2019-04-05T15:58:03.368Z,36.60
2019-04-05T16:00:47.868Z,36.63
2019-04-05T16:03:15.035Z,36.70
2019-04-05T16:05:42.211Z,36.80
2019-04-05T16:08:09.814Z,35.40
2019-04-05T16:10:36.631Z,36.70
2019-04-05T16:13:04.533Z,36.33
2019-04-05T16:15:32.316Z,36.73
2019-04-05T16:17:59.141Z,37.80
2019-04-05T16:20:26.205Z,36.47
2019-04-05T16:22:53.421Z,37.07
2019-04-05T16:25:20.305Z,38.80
2019-04-05T16:27:47.320Z,37.90
2019-04-05T16:30:14.561Z,36.07
2019-04-05T16:32:41.287Z,36.43
2019-04-05T16:35:08.694Z,35.60
2019-04-05T16:37:35.591Z,37.47
2019-04-05T16:43:10.219Z,34.93
2019-04-05T16:45:38.684Z,36.17
2019-04-05T16:48:06.111Z,36.97
2019-04-05T16:50:32.785Z,35.37
2019-04-05T16:52:59.751Z,34.93
2019-04-05T16:55:26.380Z,35.63
2019-04-05T16:57:53.167Z,36.00
2019-04-05T17:01:01.216Z,34.33
2019-04-05T17:03:47.882Z,36.30
2019-04-05T17:06:14.844Z,34.10
2019-04-05T17:08:41.504Z,32.73
2019-04-05T17:11:08.827Z,34.17
2019-04-05T17:13:35.597Z,34.83
2019-04-05T17:16:02.309Z,31.40
2019-04-05T17:18:29.363Z,33.00
2019-04-05T17:20:56.300Z,37.47
2019-04-05T17:23:22.992Z,34.90
2019-04-05T17:25:49.773Z,35.17
2019-04-05T17:28:17.219Z,35.20
2019-04-05T17:30:43.854Z,33.40
2019-04-05T17:33:10.772Z,31.57
2019-04-05T17:35:38.010Z,35.77
2019-04-05T17:38:04.730Z,38.37
2019-04-05T17:40:31.397Z,38.63
2019-04-05T17:42:58.344Z,39.23
2019-04-05T17:45:25.196Z,37.63
2019-04-05T17:47:51.943Z,37.57
2019-04-05T17:50:38.261Z,39.87
2019-04-05T17:53:12.503Z,39.00
2019-04-05T17:55:34.474Z,35.73
2019-04-05T17:58:23.113Z,37.30
2019-04-05T18:00:49.844Z,40.80
2019-04-05T18:03:16.578Z,37.57
2019-04-05T18:05:43.703Z,36.10
2019-04-05T18:08:10.338Z,38.63
2019-04-05T18:10:37.968Z,37.73
2019-04-05T18:13:04.755Z,37.30
2019-04-05T18:15:31.507Z,37.40
2019-04-05T18:17:58.503Z,39.33
2019-04-05T18:20:25.670Z,35.37
2019-04-05T18:22:53.095Z,36.83
2019-04-05T18:25:20.490Z,36.13
2019-04-05T18:27:47.981Z,36.23
2019-04-05T18:30:14.961Z,35.53
2019-04-05T18:32:42.129Z,33.47
2019-04-05T18:35:09.221Z,34.23
2019-04-05T18:37:36.530Z,36.63
2019-04-05T18:40:04.079Z,36.37
2019-04-05T18:42:30.874Z,37.37
2019-04-05T18:44:57.735Z,34.63
2019-04-05T18:47:25.201Z,35.53
2019-04-05T18:50:02.474Z,36.43
2019-04-05T18:52:21.223Z,38.27
2019-04-05T18:54:48.106Z,38.60
2019-04-05T18:57:15.065Z,38.30
2019-04-05T18:59:41.920Z,35.83
2019-04-05T19:02:08.856Z,35.80
2019-04-05T19:04:36.478Z,37.73
2019-04-05T19:07:03.523Z,38.03
2019-04-05T19:09:30.283Z,36.43
2019-04-05T19:11:57.179Z,36.97
2019-04-05T19:14:23.934Z,36.03
2019-04-05T19:16:51.028Z,38.63
2019-04-05T19:19:18.451Z,38.23
2019-04-05T19:21:45.536Z,40.17
2019-04-05T19:24:12.161Z,41.13
2019-04-05T19:26:52.157Z,40.97
2019-04-05T19:29:19.176Z,41.20
2019-04-05T19:49:09.099Z,40.60
2019-04-05T19:51:36.101Z,39.30
2019-04-05T19:54:02.915Z,39.80
2019-04-05T19:56:29.603Z,40.90
2019-04-05T19:58:56.465Z,40.57
2019-04-05T20:01:23.402Z,39.90
2019-04-05T20:03:51.899Z,40.03
2019-04-05T20:06:21.243Z,41.30
2019-04-05T20:08:49.118Z,38.53
2019-04-05T20:11:17.927Z,37.70
2019-04-05T20:13:44.480Z,38.90
2019-04-05T20:16:11.204Z,37.60
2019-04-05T20:18:38.060Z,38.90
2019-04-05T20:21:04.689Z,40.47
2019-04-05T20:23:31.322Z,39.77
2019-04-05T20:25:57.996Z,41.70
2019-04-05T20:28:25.027Z,40.97
2019-04-05T20:30:52.341Z,40.37
2019-04-05T20:33:19.150Z,39.27
2019-04-05T20:35:45.901Z,37.27
2019-04-05T20:38:12.722Z,41.43
2019-04-05T20:40:39.866Z,40.40
2019-04-05T20:43:07.059Z,39.83
2019-04-05T20:45:34.201Z,39.57
2019-04-05T20:48:01.236Z,40.33
2019-04-05T20:50:27.953Z,41.57
2019-04-05T20:52:54.980Z,38.53
2019-04-05T20:55:21.767Z,40.23
2019-04-05T20:57:48.388Z,41.33
2019-04-05T21:03:04.271Z,37.50
2019-04-05T21:05:31.713Z,42.00
2019-04-05T21:07:59.139Z,42.17
2019-04-05T21:10:26.701Z,36.80
2019-04-05T21:12:53.803Z,40.00
2019-04-05T21:15:21.220Z,39.83
2019-04-05T21:17:48.858Z,40.17
2019-04-05T21:20:16.881Z,37.63
2019-04-05T21:22:44.739Z,37.43
2019-04-05T21:25:12.086Z,37.27
2019-04-05T21:27:39.191Z,37.17
2019-04-05T21:30:19.458Z,38.03
2019-04-05T21:32:58.671Z,36.37
2019-04-05T21:35:26.209Z,40.67
2019-04-05T21:37:54.018Z,41.07
2019-04-05T21:40:21.466Z,38.00
2019-04-05T21:42:48.856Z,39.97
2019-04-05T21:45:16.298Z,36.27
2019-04-05T21:47:43.927Z,37.17
2019-04-05T21:50:11.241Z,39.00
2019-04-05T21:52:39.374Z,36.63
2019-04-05T21:55:06.683Z,39.53
2019-04-05T21:57:34.475Z,40.63
2019-04-05T22:00:02.007Z,37.17
2019-04-05T22:02:29.675Z,39.50
2019-04-05T22:04:57.864Z,36.17
2019-04-05T22:07:25.341Z,36.87
2019-04-05T22:09:52.527Z,38.23
2019-04-05T22:12:20.289Z,39.10
2019-04-05T22:14:47.554Z,41.20
2019-04-05T22:17:14.609Z,40.30
2019-04-05T22:19:42.191Z,39.63
2019-04-05T22:22:09.306Z,38.63
2019-04-05T22:24:36.475Z,43.13
2019-04-05T22:27:03.960Z,46.70
2019-04-05T22:29:31.133Z,44.30
2019-04-05T22:43:42.267Z,45.60
2019-04-05T22:46:09.729Z,43.17
2019-04-05T22:48:37.999Z,45.53
2019-04-05T22:51:05.378Z,42.13
2019-04-05T22:53:32.194Z,42.97
2019-04-05T22:55:59.100Z,43.40
2019-04-05T22:58:26.380Z,40.60
2019-04-05T23:00:53.584Z,38.13
2019-04-05T23:03:20.562Z,44.67
2019-04-05T23:05:47.480Z,40.67
2019-04-05T23:08:14.459Z,40.63
2019-04-05T23:10:41.623Z,38.57
2019-04-05T23:13:08.453Z,40.33
2019-04-05T23:15:35.076Z,40.47
2019-04-05T23:18:01.815Z,39.80
2019-04-05T23:20:29.138Z,41.00
2019-04-05T23:22:55.882Z,37.43
2019-04-05T23:25:22.879Z,35.50
2019-04-05T23:27:49.969Z,36.13
2019-04-05T23:33:05.724Z,38.83
2019-04-05T23:35:32.807Z,38.63
2019-04-05T23:38:00.301Z,35.83
2019-04-05T23:40:27.834Z,38.47
2019-04-05T23:42:55.082Z,41.93
2019-04-05T23:45:22.176Z,41.20
2019-04-05T23:47:49.374Z,41.13
2019-04-05T23:50:16.465Z,40.77
2019-04-05T23:52:43.557Z,44.90
2019-04-05T23:55:10.725Z,43.90
2019-04-05T23:57:37.837Z,41.93
